Time;durP1;ratioP1;P1;durP2;ratioP2;P2;SDS_P1;SDS_P2;PMS_P1;PMS_P2;Temp;Humidity;BMP_temperature;BMP_pressure;BME280_temperature;BME280_humidity;BME280_pressure;Samples;Min_cycle;Max_cycle;Signal;HPM_P1;HPM_P2
2022/05/01 00:01:49;;;;;;;18.20;8.02;;;;;;;12.98;65.55;101987.91;5047044;28;1107199;-72
2022/05/01 00:04:16;;;;;;;18.45;8.18;;;;;;;12.94;65.84;101985.09;5064257;28;20532;-72
2022/05/01 00:06:43;;;;;;;18.52;8.20;;;;;;;12.90;66.59;101984.25;5063298;28;20044;-72
2022/05/01 00:09:09;;;;;;;16.58;8.27;;;;;;;12.91;66.26;101987.84;5070395;28;20167;-72
2022/05/01 00:11:36;;;;;;;19.20;8.00;;;;;;;12.90;66.25;101987.03;5064860;28;20063;-72
2022/05/01 00:14:02;;;;;;;17.67;8.82;;;;;;;12.85;66.37;101978.25;5064063;28;20058;-72
2022/05/01 00:16:29;;;;;;;17.10;8.20;;;;;;;12.87;66.87;101981.44;5062929;28;20048;-72
2022/05/01 00:18:56;;;;;;;19.52;8.13;;;;;;;12.83;66.30;101980.63;5063575;28;20079;-72
2022/05/01 00:21:22;;;;;;;14.73;7.55;;;;;;;12.77;67.35;101977.41;5058693;28;20044;-72
2022/05/01 00:23:49;;;;;;;17.60;8.10;;;;;;;12.70;66.74;101977.31;5065808;28;20053;-72
2022/05/01 00:26:15;;;;;;;20.20;8.75;;;;;;;12.71;67.48;101978.09;5062574;28;20110;-72
2022/05/01 00:28:42;;;;;;;16.90;8.30;;;;;;;12.72;67.81;101977.72;5061190;28;20044;-72
2022/05/01 00:31:09;;;;;;;17.38;8.25;;;;;;;12.71;67.42;101973.38;5070860;28;20083;-73
2022/05/01 00:36:28;;;;;;;20.17;8.80;;;;;;;12.69;68.14;101980.50;5057490;28;20060;-73
2022/05/01 00:39:01;;;;;;;19.90;8.48;;;;;;;12.70;68.15;101974.53;5062492;28;20523;-73
2022/05/01 00:41:36;;;;;;;18.90;8.82;;;;;;;12.68;68.08;101970.53;5057252;28;20053;-72
2022/05/01 00:44:04;;;;;;;20.35;8.40;;;;;;;12.68;67.96;101979.69;5064154;28;20055;-72
2022/05/01 00:46:37;;;;;;;18.98;8.57;;;;;;;12.68;68.16;101974.13;5066385;28;20582;-72
2022/05/01 00:49:08;;;;;;;17.55;8.82;;;;;;;12.67;68.20;101983.66;5060443;28;20074;-73
2022/05/01 00:51:48;;;;;;;16.52;7.90;;;;;;;12.65;68.47;101974.88;5066174;28;20129;-72
2022/05/01 00:54:20;;;;;;;16.73;8.27;;;;;;;12.66;69.01;101978.47;5057955;28;20059;-72
2022/05/01 00:56:49;;;;;;;19.75;8.30;;;;;;;12.65;68.54;101972.09;5046955;28;20132;-71
2022/05/01 00:59:17;;;;;;;17.33;8.60;;;;;;;12.64;68.18;101976.06;5069747;28;20106;-71
2022/05/01 01:01:45;;;;;;;22.10;7.72;;;;;;;12.65;68.62;101976.84;5065672;28;20052;-71
2022/05/01 01:04:12;;;;;;;18.17;8.52;;;;;;;12.65;68.76;101976.84;5066565;28;20131;-72
2022/05/01 01:06:41;;;;;;;16.70;8.35;;;;;;;12.61;68.62;101970.47;5057061;28;20219;-72
2022/05/01 01:09:09;;;;;;;18.75;8.23;;;;;;;12.60;68.61;101972.47;5068052;28;20132;-72
2022/05/01 01:11:38;;;;;;;20.83;9.00;;;;;;;12.61;68.59;101978.78;5060709;28;20508;-72
2022/05/01 01:14:05;;;;;;;20.20;8.98;;;;;;;12.60;69.24;101972.47;5059645;28;20487;-71
2022/05/01 01:16:34;;;;;;;22.40;9.07;;;;;;;12.61;68.86;101970.47;5066543;28;20051;-71
2022/05/01 01:19:02;;;;;;;17.50;8.05;;;;;;;12.56;68.70;101965.28;5057975;28;20891;-71
2022/05/01 01:21:29;;;;;;;16.65;8.32;;;;;;;12.56;69.90;101968.06;5070489;28;20088;-72
2022/05/01 01:23:57;;;;;;;18.25;8.70;;;;;;;12.54;68.63;101979.53;5072764;28;20052;-71
2022/05/01 01:26:24;;;;;;;18.08;9.18;;;;;;;12.50;69.73;101962.03;5064544;28;20048;-72
2022/05/01 01:28:52;;;;;;;18.20;7.20;;;;;;;12.49;69.58;101970.75;5064056;28;20052;-71
2022/05/01 01:31:41;;;;;;;18.17;8.05;;;;;;;12.49;69.78;101973.53;5071734;28;20076;-73
2022/05/01 01:34:11;;;;;;;20.10;9.00;;;;;;;12.44;69.65;101965.53;5073184;28;20061;-72
2022/05/01 01:36:40;;;;;;;18.20;7.82;;;;;;;12.48;69.31;101977.47;5070021;28;20103;-71
2022/05/01 01:39:07;;;;;;;19.15;8.52;;;;;;;12.42;69.58;101967.91;5068259;28;20489;-72
2022/05/01 01:41:35;;;;;;;20.73;8.68;;;;;;;12.40;70.46;101962.72;5065443;28;20417;-73
2022/05/01 01:44:03;;;;;;;18.33;8.15;;;;;;;12.37;70.69;101962.66;5065176;28;20120;-74
2022/05/01 01:46:31;;;;;;;16.65;8.23;;;;;;;12.37;71.45;101976.53;5072686;28;20711;-72
2022/05/01 01:48:59;;;;;;;20.83;9.20;;;;;;;12.36;71.11;101972.97;5064563;28;20084;-72
2022/05/01 01:51:26;;;;;;;21.52;8.73;;;;;;;12.36;71.08;101975.75;5070311;28;20090;-73
2022/05/01 01:53:53;;;;;;;22.88;8.43;;;;;;;12.36;72.16;101977.75;5067701;28;20449;-72
2022/05/01 01:56:20;;;;;;;19.05;7.90;;;;;;;12.32;71.75;101976.91;5069889;28;20048;-72
2022/05/01 01:58:47;;;;;;;19.92;8.48;;;;;;;12.33;72.85;101975.72;5069083;28;20631;-73
2022/05/01 02:01:13;;;;;;;17.65;8.52;;;;;;;12.30;72.44;101971.72;5067519;28;20071;-73
2022/05/01 02:03:40;;;;;;;19.05;8.23;;;;;;;12.28;72.55;101974.06;5069152;28;20048;-71
2022/05/01 02:06:08;;;;;;;18.85;8.55;;;;;;;12.27;73.32;101972.47;5066847;28;20054;-73
2022/05/01 02:08:35;;;;;;;18.67;8.90;;;;;;;12.27;72.80;101971.66;5069123;28;20048;-71
2022/05/01 02:11:05;;;;;;;18.20;8.25;;;;;;;12.27;72.80;101971.66;5062405;28;20074;-72
2022/05/01 02:13:34;;;;;;;17.80;8.55;;;;;;;12.27;73.79;101974.44;5055825;28;20056;-71
2022/05/01 02:16:01;;;;;;;19.27;8.57;;;;;;;12.23;73.54;101968.88;5097785;28;20044;-72
2022/05/01 02:18:27;;;;;;;17.23;8.82;;;;;;;12.19;72.68;101964.44;5066703;28;20051;-73
2022/05/01 02:23:38;;;;;;;21.80;10.52;;;;;;;12.18;73.68;101965.59;5068361;28;20048;-72
2022/05/01 02:26:05;;;;;;;18.55;8.55;;;;;;;12.12;74.07;101950.50;5069066;28;20067;-71
2022/05/01 02:28:32;;;;;;;20.30;9.07;;;;;;;12.09;74.20;101954.03;5059557;28;20059;-71
2022/05/01 02:30:58;;;;;;;18.63;9.00;;;;;;;12.08;74.58;101952.44;5064559;28;20059;-72
2022/05/01 02:33:25;;;;;;;21.05;9.05;;;;;;;12.03;74.67;101952.75;5069557;28;20080;-71
2022/05/01 02:35:52;;;;;;;19.55;8.98;;;;;;;12.00;75.43;101959.03;5064616;28;20149;-71
2022/05/01 02:38:18;;;;;;;21.10;9.45;;;;;;;11.97;74.72;101963.38;5062922;28;20572;-71
2022/05/01 02:40:45;;;;;;;20.85;9.82;;;;;;;11.96;75.85;101961.78;5068418;28;20380;-72
2022/05/01 02:43:11;;;;;;;16.45;8.35;;;;;;;11.93;75.72;101956.19;5067670;28;20053;-71
2022/05/01 02:45:38;;;;;;;21.30;9.55;;;;;;;11.88;76.63;101954.53;5068457;28;20131;-71
2022/05/01 02:48:05;;;;;;;20.52;9.13;;;;;;;11.84;77.38;101952.88;5066760;28;20125;-71
2022/05/01 02:50:32;;;;;;;19.83;8.77;;;;;;;11.76;77.95;101954.78;5070899;28;20348;-70
2022/05/01 02:52:59;;;;;;;18.65;8.82;;;;;;;11.72;78.73;101955.91;5067906;28;20451;-71
2022/05/01 02:55:25;;;;;;;16.85;7.78;;;;;;;11.66;79.95;101949.09;5073813;28;20433;-73
2022/05/01 02:57:52;;;;;;;17.60;8.27;;;;;;;11.60;80.11;101945.81;5066379;28;20058;-71
2022/05/01 03:00:18;;;;;;;21.50;8.95;;;;;;;11.52;80.69;101935.00;5057493;28;20056;-73
2022/05/01 03:02:48;;;;;;;20.98;8.85;;;;;;;11.50;82.33;101949.22;5064045;28;20088;-72
2022/05/01 03:05:16;;;;;;;17.73;8.98;;;;;;;11.43;81.87;101948.31;5059348;28;20478;-70
2022/05/01 03:07:43;;;;;;;23.00;11.27;;;;;;;11.38;82.47;101941.16;5066675;28;20040;-72
2022/05/01 03:10:10;;;;;;;22.05;9.45;;;;;;;11.31;82.80;101946.56;5067889;28;20052;-70
2022/05/01 03:12:37;;;;;;;20.27;10.10;;;;;;;11.22;83.92;101945.22;5069171;28;20424;-71
2022/05/01 03:15:07;;;;;;;20.75;9.40;;;;;;;11.21;83.16;101946.41;5059028;28;20048;-72
2022/05/01 03:23:04;;;;;;;20.38;9.52;;;;;;;11.04;86.36;101942.19;5059115;28;20036;-71
2022/05/01 03:25:31;;;;;;;21.60;9.50;;;;;;;11.00;86.78;101946.84;5091857;28;20452;-71
2022/05/01 03:27:58;;;;;;;22.80;9.40;;;;;;;10.96;87.52;101940.44;5067734;28;20159;-72
2022/05/01 03:30:25;;;;;;;19.30;8.65;;;;;;;10.91;86.93;101934.44;5065392;28;20135;-70
2022/05/01 03:32:52;;;;;;;20.17;9.20;;;;;;;10.87;88.12;101928.03;5066996;28;20125;-71
2022/05/01 03:35:18;;;;;;;19.90;9.32;;;;;;;10.81;88.62;101932.28;5063172;28;20091;-71
2022/05/01 03:37:45;;;;;;;18.30;8.68;;;;;;;10.78;89.40;101938.56;5048080;28;20366;-70
2022/05/01 03:40:14;;;;;;;19.08;8.60;;;;;;;10.71;89.31;101930.13;5062146;28;20052;-72
2022/05/01 03:42:41;;;;;;;19.35;8.60;;;;;;;10.69;87.92;101938.00;5070063;28;20044;-70
2022/05/01 03:45:09;;;;;;;17.80;8.20;;;;;;;10.66;88.84;101938.75;5057781;28;20053;-72
2022/05/01 03:47:36;;;;;;;20.23;9.30;;;;;;;10.61;89.11;101933.50;5067375;28;20054;-71
2022/05/01 03:50:04;;;;;;;20.13;9.05;;;;;;;10.59;89.55;101936.63;5065654;28;20063;-71
2022/05/01 03:52:31;;;;;;;21.33;9.13;;;;;;;10.56;89.89;101939.34;5066889;28;20062;-70
2022/05/01 03:54:58;;;;;;;21.95;10.02;;;;;;;10.52;90.11;101938.50;5067768;28;20468;-72
2022/05/01 03:57:24;;;;;;;20.27;9.73;;;;;;;10.47;91.32;101945.91;5070130;28;20497;-71
2022/05/01 03:59:51;;;;;;;21.20;10.30;;;;;;;10.44;91.34;101946.63;5065131;28;20485;-71
2022/05/01 04:02:17;;;;;;;20.02;9.63;;;;;;;10.43;91.20;101941.50;5067960;28;20045;-72
2022/05/01 04:04:48;;;;;;;23.33;10.13;;;;;;;10.40;92.00;101945.78;5067936;28;20127;-71
2022/05/01 04:07:15;;;;;;;20.38;9.57;;;;;;;10.34;91.57;101950.03;5062111;28;20096;-71
2022/05/01 04:09:41;;;;;;;21.40;10.45;;;;;;;10.33;92.95;101942.88;5068135;28;20135;-71
2022/05/01 04:12:09;;;;;;;20.13;10.27;;;;;;;10.31;93.37;101945.22;5072084;28;20095;-73
2022/05/01 04:14:36;;;;;;;21.25;9.05;;;;;;;10.30;92.98;101949.13;5069152;28;20170;-72
2022/05/01 04:17:02;;;;;;;21.23;9.60;;;;;;;10.30;93.40;101949.13;5070882;28;20112;-73
2022/05/01 04:19:29;;;;;;;22.05;9.75;;;;;;;10.26;93.60;101944.72;5061606;28;20140;-71
2022/05/01 04:21:56;;;;;;;19.75;10.07;;;;;;;10.24;93.92;101945.09;5065233;28;20052;-71
2022/05/01 04:24:23;;;;;;;19.05;9.50;;;;;;;10.25;94.23;101954.16;5069323;28;20063;-72
2022/05/01 04:26:50;;;;;;;20.92;9.48;;;;;;;10.22;94.49;101949.38;5068680;28;20048;-71
2022/05/01 04:32:04;;;;;;;22.57;10.23;;;;;;;10.21;95.48;101950.53;5070832;28;20083;-71
2022/05/01 04:34:32;;;;;;;20.90;9.45;;;;;;;10.20;95.50;101954.47;5069598;28;20049;-72
2022/05/01 04:36:59;;;;;;;20.52;10.15;;;;;;;10.16;95.15;101951.63;5073314;28;20576;-71
2022/05/01 04:39:26;;;;;;;19.02;9.65;;;;;;;10.17;94.84;101947.69;5068272;28;20836;-71
2022/05/01 04:41:53;;;;;;;23.83;10.40;;;;;;;10.22;94.69;101949.38;5072598;28;20582;-72
2022/05/01 04:44:20;;;;;;;23.98;10.02;;;;;;;10.23;95.84;101949.00;5074121;28;20048;-71
2022/05/01 04:46:49;;;;;;;20.40;9.60;;;;;;;10.27;95.59;101952.63;5072027;28;20134;-71
2022/05/01 04:49:18;;;;;;;20.98;10.23;;;;;;;10.30;94.85;101951.13;5072551;28;20063;-72
2022/05/01 04:51:46;;;;;;;18.77;9.65;;;;;;;10.36;95.20;101955.16;5067714;28;20084;-72
2022/05/01 04:54:13;;;;;;;20.08;9.30;;;;;;;10.41;95.36;101957.66;5073387;28;20076;-71
2022/05/01 04:59:39;;;;;;;20.70;10.18;;;;;;;10.46;95.51;101949.84;5036067;28;20059;-72
2022/05/01 05:02:05;;;;;;;22.45;9.85;;;;;;;10.53;95.01;101961.06;5078405;28;20075;-72
2022/05/01 05:04:32;;;;;;;22.10;9.85;;;;;;;10.56;95.69;101961.50;5072415;28;20052;-71
2022/05/01 05:06:59;;;;;;;22.83;10.07;;;;;;;10.57;95.98;101968.63;5064811;28;20516;-70
2022/05/01 05:12:11;;;;;;;;;;;;;;;10.69;97.63;101966.47;5069033;28;20102;-71
2022/05/01 05:14:38;;;;;;;21.60;9.98;;;;;;;10.75;96.94;101961.44;5069584;28;20249;-72
2022/05/01 05:17:06;;;;;;;21.55;10.23;;;;;;;10.79;96.24;101951.22;5068615;28;20143;-70
2022/05/01 05:19:34;;;;;;;21.75;10.15;;;;;;;10.87;94.90;101961.25;5071919;28;20052;-70
2022/05/01 05:22:02;;;;;;;22.13;10.65;;;;;;;10.90;94.49;101953.00;5061321;28;20131;-71
2022/05/01 05:24:30;;;;;;;21.27;11.10;;;;;;;10.96;93.97;101948.75;5067687;28;20131;-71
2022/05/01 05:26:57;;;;;;;21.92;9.90;;;;;;;11.09;93.73;101955.72;5058566;28;20424;-72
2022/05/01 05:29:24;;;;;;;23.48;10.32;;;;;;;11.17;92.98;101959.41;5064422;28;20418;-73
2022/05/01 05:31:50;;;;;;;20.05;9.95;;;;;;;11.20;91.87;101953.91;5072446;28;20084;-72
2022/05/01 05:34:17;;;;;;;19.75;9.40;;;;;;;11.28;91.34;101963.13;5070920;28;20048;-71
2022/05/01 05:36:44;;;;;;;20.67;9.30;;;;;;;11.35;90.57;101954.94;5066313;28;20075;-71
2022/05/01 05:39:10;;;;;;;17.85;8.85;;;;;;;11.42;89.71;101964.16;5066198;28;20470;-71
2022/05/01 05:41:37;;;;;;;19.35;9.40;;;;;;;11.48;89.09;101973.72;5071511;28;20131;-70
2022/05/01 05:44:04;;;;;;;21.77;9.85;;;;;;;11.56;88.21;101967.13;5056348;28;20048;-73
2022/05/01 05:46:31;;;;;;;19.30;9.38;;;;;;;11.60;87.67;101975.50;5068045;28;20052;-73
2022/05/01 05:48:57;;;;;;;19.83;9.18;;;;;;;11.69;87.63;101964.97;5069383;28;20051;-73
2022/05/01 05:51:24;;;;;;;18.80;9.05;;;;;;;11.80;86.07;101965.91;5064638;28;20048;-74
2022/05/01 05:53:52;;;;;;;18.75;8.50;;;;;;;11.96;84.53;101977.63;5072081;28;20049;-74
2022/05/01 05:56:20;;;;;;;17.70;8.02;;;;;;;11.98;81.43;101973.28;5074135;28;20056;-74
2022/05/01 05:58:46;;;;;;;19.70;8.07;;;;;;;12.05;81.13;101978.16;5071826;28;20499;-75
2022/05/01 06:01:13;;;;;;;17.85;7.82;;;;;;;12.13;80.54;101977.88;5069010;28;20424;-74
2022/05/01 06:03:40;;;;;;;19.35;8.70;;;;;;;12.19;79.16;101981.88;5068156;28;20047;-75
2022/05/01 06:06:07;;;;;;;16.67;7.30;;;;;;;12.17;79.13;101980.66;5071662;28;20052;-73
2022/05/01 06:08:38;;;;;;;16.15;7.00;;;;;;;12.22;78.44;101983.13;5071197;28;20108;-74
2022/05/01 06:11:05;;;;;;;16.55;7.88;;;;;;;12.26;76.61;101984.72;5062945;28;20048;-74
2022/05/01 06:13:32;;;;;;;17.23;7.45;;;;;;;12.23;75.99;101974.41;5075782;28;20141;-73
2022/05/01 06:15:58;;;;;;;16.15;7.15;;;;;;;12.26;74.63;101986.72;5073352;28;20048;-75
2022/05/01 06:18:25;;;;;;;17.02;7.63;;;;;;;12.19;74.07;101983.88;5072689;28;20390;-73
2022/05/01 06:20:53;;;;;;;15.88;7.63;;;;;;;12.15;73.63;101975.50;5066854;28;20076;-74
2022/05/01 06:23:25;;;;;;;15.95;7.45;;;;;;;12.22;73.47;101988.66;5072849;28;20083;-75
2022/05/01 06:25:51;;;;;;;21.20;8.95;;;;;;;12.19;73.34;101976.34;5070720;28;20139;-74
2022/05/01 06:28:18;;;;;;;13.52;5.95;;;;;;;12.24;73.02;101986.31;5068543;28;20106;-74
2022/05/01 06:30:46;;;;;;;18.50;7.30;;;;;;;12.27;71.56;101988.31;5066825;28;20062;-75
2022/05/01 06:33:15;;;;;;;16.08;7.32;;;;;;;12.30;71.78;101987.56;5067239;28;20595;-75
2022/05/01 06:35:49;;;;;;;15.43;7.10;;;;;;;12.34;71.36;101982.84;5062029;28;20482;-74
2022/05/01 06:38:16;;;;;;;16.55;7.72;;;;;;;12.39;71.64;101988.09;5064058;28;20053;-74
2022/05/01 06:40:44;;;;;;;17.70;7.57;;;;;;;12.35;70.71;101979.69;5099186;28;20405;-75
2022/05/01 06:43:15;;;;;;;17.95;7.95;;;;;;;12.32;70.99;101988.00;5073238;28;20139;-73
2022/05/01 06:45:42;;;;;;;18.20;7.35;;;;;;;12.29;70.47;101985.97;5068511;28;20049;-75
2022/05/01 06:48:13;;;;;;;17.23;8.05;;;;;;;12.24;70.51;101992.66;5068575;28;20048;-74
2022/05/01 06:50:40;;;;;;;18.73;7.75;;;;;;;12.21;71.06;101987.06;5062828;28;20135;-73
2022/05/01 06:53:07;;;;;;;22.38;8.65;;;;;;;12.27;71.03;101991.09;5066245;28;20098;-74
2022/05/01 06:55:34;;;;;;;21.40;8.43;;;;;;;12.33;71.38;101993.19;5063350;28;20098;-73
2022/05/01 06:58:00;;;;;;;16.38;7.43;;;;;;;12.42;71.94;101996.44;5069493;28;20423;-71
2022/05/01 07:00:27;;;;;;;19.92;8.45;;;;;;;12.51;71.92;101987.81;5064847;28;20520;-74
2022/05/01 07:02:54;;;;;;;19.15;8.63;;;;;;;12.63;72.13;101998.66;5062298;28;20142;-73
2022/05/01 07:05:21;;;;;;;16.55;7.10;;;;;;;12.66;71.42;101989.56;5066782;28;20083;-72
2022/05/01 07:07:54;;;;;;;18.02;8.00;;;;;;;12.74;70.55;101992.06;5067270;28;20059;-72
2022/05/01 07:10:22;;;;;;;17.98;8.23;;;;;;;12.84;70.47;101996.09;5069414;28;20462;-71
2022/05/01 07:12:49;;;;;;;18.35;8.40;;;;;;;12.99;70.58;101995.88;5081829;28;20425;-71
2022/05/01 07:15:16;;;;;;;21.20;8.75;;;;;;;13.11;69.41;101997.59;5084548;28;20049;-72
2022/05/01 07:17:43;;;;;;;18.48;8.70;;;;;;;13.20;68.85;101995.28;5061105;28;20136;-70
2022/05/01 07:20:10;;;;;;;16.83;7.80;;;;;;;13.30;68.33;102000.13;5065871;28;20071;-71
2022/05/01 07:22:43;;;;;;;19.48;9.00;;;;;;;13.38;67.96;101995.41;5063782;28;20495;-71
2022/05/01 07:25:10;;;;;;;18.08;7.40;;;;;;;13.45;67.54;101996.28;5054766;28;20052;-71
2022/05/01 07:27:36;;;;;;;17.67;8.90;;;;;;;13.51;67.18;101991.94;5064176;28;20102;-66
2022/05/01 07:30:03;;;;;;;15.90;7.43;;;;;;;13.50;65.46;101995.13;5066028;28;20044;-70
2022/05/01 07:32:30;;;;;;;20.63;9.30;;;;;;;13.52;65.53;101999.09;5068897;28;20098;-73
2022/05/01 07:34:57;;;;;;;17.55;8.85;;;;;;;13.61;65.23;101996.78;5067177;28;20157;-71
2022/05/01 07:37:26;;;;;;;15.85;7.30;;;;;;;13.70;65.17;102000.00;5067862;28;20072;-72
2022/05/01 07:39:54;;;;;;;21.48;8.55;;;;;;;13.79;64.54;101999.66;5064908;28;20084;-73
2022/05/01 07:42:23;;;;;;;18.17;8.57;;;;;;;13.94;64.47;102004.16;5057082;28;20057;-73
2022/05/01 07:44:51;;;;;;;19.05;8.50;;;;;;;13.99;64.21;102001.78;5063291;28;20077;-71
2022/05/01 07:47:17;;;;;;;20.83;9.63;;;;;;;14.09;63.92;102005.81;5060301;28;20131;-71
2022/05/01 07:49:44;;;;;;;20.05;8.82;;;;;;;14.14;63.39;101999.88;5068532;28;20059;-72
2022/05/01 07:52:11;;;;;;;21.02;9.13;;;;;;;14.22;62.95;102009.84;5063713;28;20467;-71
2022/05/01 07:54:38;;;;;;;20.90;8.88;;;;;;;14.26;62.63;101999.53;5080214;28;20911;-72
2022/05/01 07:57:04;;;;;;;17.50;8.70;;;;;;;14.34;62.07;102004.75;5073984;28;20040;-72
2022/05/01 07:59:31;;;;;;;21.25;9.18;;;;;;;14.40;61.82;101992.06;5068643;28;20120;-72
2022/05/01 08:01:59;;;;;;;17.40;8.55;;;;;;;14.57;61.05;101999.66;5067961;28;20496;-72
2022/05/01 08:04:29;;;;;;;17.70;8.15;;;;;;;14.66;60.91;101986.16;5074318;28;20084;-72
2022/05/01 08:07:01;;;;;;;19.58;9.05;;;;;;;14.76;60.75;101996.53;5068177;28;20059;-71
2022/05/01 08:09:29;;;;;;;19.67;7.55;;;;;;;14.89;60.96;101994.16;5063039;28;20049;-71
2022/05/01 08:11:57;;;;;;;18.80;8.45;;;;;;;14.98;60.09;101992.56;5067017;28;20058;-72
2022/05/01 08:14:23;;;;;;;17.30;8.50;;;;;;;15.11;59.62;101993.78;5071409;28;20076;-73
2022/05/01 08:16:51;;;;;;;20.15;8.57;;;;;;;15.23;59.86;101993.38;5077044;28;20056;-73
2022/05/01 08:22:05;;;;;;;15.43;7.40;;;;;;;15.35;58.29;101989.38;5070366;28;20507;-72
2022/05/01 08:24:32;;;;;;;16.45;8.18;;;;;;;15.48;58.50;101987.03;5068574;28;20109;-71
2022/05/01 08:27:05;;;;;;;21.63;8.50;;;;;;;15.66;58.43;101987.81;5064805;28;20496;-72
2022/05/01 08:29:38;;;;;;;17.65;7.93;;;;;;;15.74;57.37;101983.78;5071454;28;20489;-74
2022/05/01 08:32:06;;;;;;;18.08;8.68;;;;;;;15.85;57.12;101992.94;5071768;28;20127;-73
2022/05/01 08:34:33;;;;;;;16.98;8.57;;;;;;;15.79;55.87;101997.34;5066365;28;20055;-72
2022/05/01 08:37:00;;;;;;;18.40;8.80;;;;;;;15.81;55.64;101978.19;5071066;28;20120;-72
2022/05/01 08:39:26;;;;;;;18.05;8.77;;;;;;;15.90;55.69;101984.16;5070997;28;20083;-71
2022/05/01 08:41:53;;;;;;;17.65;8.55;;;;;;;15.95;55.40;101989.31;5057303;28;20041;-72
2022/05/01 08:44:32;;;;;;;18.10;9.15;;;;;;;16.03;54.65;101993.69;5072390;28;20139;-72
2022/05/01 08:47:29;;;;;;;17.90;9.13;;;;;;;16.12;56.08;101983.69;5071808;28;20101;-74
2022/05/01 08:49:58;;;;;;;17.88;9.05;;;;;;;16.32;55.85;101975.63;5070982;28;20051;-73
2022/05/01 08:52:30;;;;;;;16.92;8.25;;;;;;;16.37;54.83;101983.59;5061967;28;20094;-73
2022/05/01 08:55:01;;;;;;;17.17;8.73;;;;;;;16.57;54.47;101977.09;5068534;28;20140;-72
2022/05/01 08:57:33;;;;;;;16.95;8.55;;;;;;;16.58;53.54;101983.50;5073669;28;20790;-75
2022/05/01 09:00:05;;;;;;;18.42;8.80;;;;;;;16.53;53.15;101975.53;5059248;28;20055;-73
2022/05/01 09:02:35;;;;;;;20.05;9.40;;;;;;;16.82;53.91;101985.34;5074113;28;20052;-75
2022/05/01 09:05:02;;;;;;;17.92;8.07;;;;;;;16.92;52.95;101974.09;5066122;28;20102;-73
2022/05/01 09:07:35;;;;;;;18.25;8.68;;;;;;;16.99;52.24;101964.84;5073488;28;20048;-73
2022/05/01 09:10:02;;;;;;;16.92;7.72;;;;;;;17.22;52.41;101979.06;5070275;28;20405;-74
2022/05/01 09:12:49;;;;;;;23.55;9.35;;;;;;;17.24;51.53;101979.41;5072836;28;20056;-72
2022/05/01 09:15:36;;;;;;;20.00;8.82;;;;;;;17.21;50.25;101995.03;5066982;28;20067;-76
2022/05/01 09:18:05;;;;;;;21.55;9.20;;;;;;;17.14;50.98;101958.72;5061947;28;20045;-75
2022/05/01 09:20:33;;;;;;;19.13;8.38;;;;;;;17.23;50.29;101984.22;5070338;28;20051;-74
2022/05/01 09:23:03;;;;;;;19.33;8.85;;;;;;;17.13;49.73;101970.31;5071516;28;20052;-73
2022/05/01 09:25:29;;;;;;;20.50;8.43;;;;;;;17.31;49.59;101982.16;5078899;28;20056;-75
2022/05/01 09:28:17;;;;;;;19.75;8.77;;;;;;;17.24;49.16;101949.44;5071004;28;20055;-73
2022/05/01 09:30:49;;;;;;;18.73;8.07;;;;;;;17.44;49.79;101963.69;5068097;28;20052;-72
2022/05/01 09:33:20;;;;;;;16.25;8.35;;;;;;;17.69;48.76;101983.84;5069957;28;20113;-73
2022/05/01 09:35:56;;;;;;;18.65;8.57;;;;;;;17.59;48.74;101959.56;5072439;28;20052;-77
2022/05/01 09:38:26;;;;;;;16.98;8.00;;;;;;;17.57;48.03;101973.16;5067611;28;20126;-77
2022/05/01 09:40:57;;;;;;;18.55;8.00;;;;;;;17.20;47.68;101984.25;5062471;28;20513;-75
2022/05/01 09:43:38;;;;;;;18.33;8.80;;;;;;;17.13;48.34;101987.09;5071259;28;20048;-74
2022/05/01 09:46:12;;;;;;;18.30;8.35;;;;;;;17.32;49.62;101981.75;5058033;28;20056;-78
2022/05/01 09:48:39;;;;;;;15.02;7.20;;;;;;;17.55;49.03;101981.19;5071025;28;20045;-77
2022/05/01 09:51:18;;;;;;;17.08;8.45;;;;;;;17.73;48.15;101979.00;5072905;28;20049;-77
2022/05/01 09:53:46;;;;;;;14.98;6.70;;;;;;;17.93;48.17;101977.19;5060635;28;20592;-77
2022/05/01 09:56:12;;;;;;;15.98;7.25;;;;;;;17.96;47.19;101977.13;5067211;28;20048;-76
2022/05/01 09:58:40;;;;;;;15.18;7.28;;;;;;;18.08;47.10;101975.78;5070210;28;20091;-77
2022/05/01 10:01:16;;;;;;;25.30;8.00;;;;;;;18.11;45.90;101980.56;5068697;28;20049;-77
2022/05/01 10:03:46;;;;;;;16.27;6.90;;;;;;;18.10;46.36;101978.16;5068027;28;20477;-77
2022/05/01 10:06:14;;;;;;;12.98;6.70;;;;;;;18.06;45.45;101972.63;5072905;28;20463;-77
2022/05/01 10:08:43;;;;;;;14.68;6.43;;;;;;;18.10;46.21;101972.56;5070934;28;20059;-77
2022/05/01 10:11:14;;;;;;;16.10;6.55;;;;;;;18.04;45.74;101966.63;5069155;28;20524;-78
2022/05/01 10:13:41;;;;;;;14.38;6.75;;;;;;;18.05;45.76;101968.22;5070821;28;20048;-78
2022/05/01 10:16:11;;;;;;;16.48;7.20;;;;;;;18.06;45.59;101969.81;5068964;28;20052;-77
2022/05/01 10:18:46;;;;;;;16.80;6.85;;;;;;;18.00;45.59;101971.50;5068642;28;20140;-77
2022/05/01 10:21:35;;;;;;;15.35;7.05;;;;;;;18.08;45.76;101967.38;5059492;28;20053;-76
2022/05/01 10:24:02;;;;;;;17.60;7.30;;;;;;;18.12;45.65;101964.56;5073860;28;20131;-74
2022/05/01 10:26:34;;;;;;;17.52;7.50;;;;;;;18.20;45.15;101977.25;5076282;28;20525;-74
2022/05/01 10:29:20;;;;;;;18.83;7.28;;;;;;;18.28;44.66;101965.53;5067345;28;20044;-75
2022/05/01 10:32:25;;;;;;;15.10;6.93;;;;;;;18.25;44.19;101966.38;5064963;28;20056;-73
2022/05/01 10:35:20;;;;;;;19.33;7.97;;;;;;;18.21;43.88;101959.22;5068928;28;20044;-75
2022/05/01 10:37:46;;;;;;;16.65;8.18;;;;;;;18.13;42.96;101961.34;5058627;28;20080;-74
2022/05/01 10:40:13;;;;;;;15.77;6.95;;;;;;;18.05;42.38;101957.00;5071306;28;20123;-75
2022/05/01 10:42:46;;;;;;;19.40;7.88;;;;;;;17.79;42.67;101954.94;5078775;28;20072;-74
2022/05/01 10:45:21;;;;;;;17.60;7.97;;;;;;;17.63;43.17;101954.72;5057364;28;20054;-75
2022/05/01 10:47:51;;;;;;;16.95;8.35;;;;;;;17.65;44.06;101949.50;5054747;28;20048;-74
2022/05/01 10:50:26;;;;;;;17.70;8.00;;;;;;;17.65;43.32;101947.47;5062421;28;20051;-74
2022/05/01 10:53:06;;;;;;;18.73;8.52;;;;;;;17.80;43.74;101946.13;5066915;28;20048;-76
2022/05/01 10:55:42;;;;;;;19.40;9.00;;;;;;;17.95;42.98;101938.34;5066320;28;20076;-75
2022/05/01 10:58:18;;;;;;;15.98;8.18;;;;;;;18.06;42.83;101941.81;5070835;28;20072;-76
2022/05/01 11:00:46;;;;;;;17.67;8.18;;;;;;;18.24;43.23;101933.97;5073427;28;20151;-75
2022/05/01 11:03:51;;;;;;;19.80;9.23;;;;;;;18.35;42.53;101940.22;5062885;28;20141;-75
2022/05/01 11:06:20;;;;;;;16.45;8.15;;;;;;;18.45;42.80;101939.31;5044834;28;20045;-75
2022/05/01 11:08:47;;;;;;;18.35;8.13;;;;;;;18.52;42.41;101924.41;5065434;28;20079;-76
2022/05/01 11:11:14;;;;;;;16.63;7.18;;;;;;;18.68;42.60;101918.94;5066826;28;20059;-76
2022/05/01 11:13:41;;;;;;;17.08;7.85;;;;;;;18.94;42.10;101924.56;5069389;28;20143;-75
2022/05/01 11:16:09;;;;;;;19.90;6.63;;;;;;;19.14;41.16;101924.63;5063483;28;20049;-76
2022/05/01 11:18:54;;;;;;;17.65;7.20;;;;;;;19.12;39.15;101919.44;5072854;28;20079;-76
2022/05/01 11:21:20;;;;;;;18.88;7.43;;;;;;;19.22;40.51;101926.88;5068309;28;20148;-73
2022/05/01 11:24:15;;;;;;;12.55;5.93;;;;;;;19.33;39.01;101923.88;5068002;28;20127;-75
2022/05/01 11:27:18;;;;;;;18.55;7.35;;;;;;;19.21;38.87;101914.06;5054615;28;20420;-76
2022/05/01 11:30:06;;;;;;;14.80;6.68;;;;;;;19.44;39.19;101902.81;4991360;28;20713;-74
2022/05/01 11:32:44;;;;;;;15.13;6.97;;;;;;;19.04;39.09;101903.91;5060468;28;20103;-75
2022/05/01 11:35:11;;;;;;;18.65;6.65;;;;;;;18.99;39.62;101901.63;5065771;28;20588;-75
2022/05/01 11:38:08;;;;;;;17.25;7.53;;;;;;;18.73;39.75;101898.84;5068507;28;20762;-74
2022/05/01 11:40:34;;;;;;;13.50;7.20;;;;;;;18.92;40.61;101901.72;5055103;28;20515;-74
2022/05/01 11:43:16;;;;;;;14.73;7.78;;;;;;;19.19;40.33;101896.84;5065991;28;20131;-75
2022/05/01 11:45:45;;;;;;;14.52;6.97;;;;;;;19.33;40.29;101887.41;5062978;28;20059;-77
2022/05/01 11:48:21;;;;;;;15.63;8.05;;;;;;;19.28;39.54;101885.91;5062806;28;20756;-76
2022/05/01 11:50:49;;;;;;;17.13;8.57;;;;;;;19.29;39.66;101886.69;5098165;28;20040;-77